Time;durP1;ratioP1;P1;durP2;ratioP2;P2;SDS_P1;SDS_P2;PMS_P1;PMS_P2;Temp;Humidity;BMP_temperature;BMP_pressure;BME280_temperature;BME280_humidity;BME280_pressure;Samples;Min_cycle;Max_cycle;Signal;HPM_P1;HPM_P2
2022/11/27 00:01:12;;;;;;;32.45;14.35;;;3.90;99.90;;;2.05;100.00;101985.06;4826980;29;20030;-75
2022/11/27 00:03:40;;;;;;;28.23;13.60;;;3.70;99.90;;;2.01;100.00;101980.94;4823033;29;20037;-76
2022/11/27 00:06:07;;;;;;;25.80;12.52;;;3.70;99.90;;;1.92;100.00;101984.41;4822226;29;20102;-76
2022/11/27 00:08:33;;;;;;;31.43;14.10;;;3.60;99.90;;;1.77;100.00;101979.28;4821964;29;20068;-76
2022/11/27 00:11:14;;;;;;;27.27;12.88;;;3.50;99.90;;;1.68;100.00;101980.88;4821728;29;20062;-75
2022/11/27 00:13:40;;;;;;;26.55;13.00;;;3.40;99.90;;;1.47;100.00;101977.28;4822209;29;20125;-77
2022/11/27 00:16:07;;;;;;;34.17;13.98;;;3.20;99.90;;;1.60;100.00;101977.16;4821985;29;20072;-76
2022/11/27 00:18:35;;;;;;;37.25;15.15;;;3.20;99.90;;;1.63;100.00;101982.28;4821384;29;20099;-75
2022/11/27 00:21:11;;;;;;;35.22;15.57;;;3.30;99.90;;;1.67;100.00;101978.34;4822238;29;20030;-74
2022/11/27 00:23:37;;;;;;;34.40;14.75;;;3.30;99.90;;;1.71;100.00;101975.25;4821573;29;20062;-75
2022/11/27 00:26:04;;;;;;;35.28;15.70;;;3.30;99.90;;;1.81;100.00;101964.59;4820176;29;20062;-76
2022/11/27 00:28:30;;;;;;;37.75;16.23;;;3.40;99.90;;;1.75;100.00;101970.50;4821490;29;20031;-76
2022/11/27 00:31:02;;;;;;;31.52;15.90;;;3.40;99.90;;;1.70;100.00;101959.25;4821666;29;20567;-75
2022/11/27 00:33:28;;;;;;;33.40;15.70;;;3.40;99.90;;;1.68;100.00;101955.84;4822027;29;20393;-76
2022/11/27 00:35:54;;;;;;;32.70;14.90;;;3.40;99.90;;;1.70;100.00;101945.81;4822284;29;20043;-76
2022/11/27 00:38:20;;;;;;;39.78;16.30;;;3.40;99.90;;;1.72;100.00;101943.84;4831260;29;20047;-76
2022/11/27 00:40:47;;;;;;;33.05;16.08;;;3.40;99.90;;;1.68;100.00;101935.16;4821372;29;20022;-76
2022/11/27 00:43:13;;;;;;;40.88;16.83;;;3.40;99.90;;;1.69;100.00;101918.03;4821231;29;20443;-76
2022/11/27 00:45:38;;;;;;;39.30;16.85;;;3.40;99.90;;;1.71;100.00;101923.28;4821036;29;20122;-77
2022/11/27 00:48:05;;;;;;;43.63;17.77;;;3.40;99.90;;;1.62;100.00;101930.28;4821189;29;20797;-76
2022/11/27 00:50:31;;;;;;;34.92;18.23;;;3.30;99.90;;;1.59;100.00;101917.09;4820812;29;20034;-76
2022/11/27 00:53:00;;;;;;;32.33;16.60;;;3.30;99.90;;;1.62;100.00;101926.75;4820873;29;20050;-76
2022/11/27 00:55:26;;;;;;;39.67;16.92;;;3.30;99.90;;;1.63;100.00;101912.31;4820720;29;20057;-76
2022/11/27 00:57:51;;;;;;;38.22;16.95;;;3.20;99.90;;;1.68;100.00;101910.94;4821316;29;20054;-75
2022/11/27 01:00:18;;;;;;;39.67;17.80;;;3.30;99.90;;;1.67;100.00;101916.47;4820585;29;20107;-75
2022/11/27 01:02:44;;;;;;;35.65;17.10;;;3.40;99.90;;;1.68;100.00;101919.00;4820955;29;20049;-75
2022/11/27 01:05:12;;;;;;;33.83;17.55;;;3.30;99.90;;;1.78;100.00;101907.50;4824763;29;20450;-76
2022/11/27 01:07:38;;;;;;;38.75;14.98;;;3.40;99.90;;;2.01;100.00;101908.25;4821048;29;20122;-76
2022/11/27 01:10:06;;;;;;;33.75;16.95;;;3.50;99.90;;;2.20;100.00;101904.84;4820958;29;20040;-75
2022/11/27 01:12:31;;;;;;;47.75;18.90;;;3.80;99.90;;;2.22;100.00;101904.72;4820661;29;20128;-75
2022/11/27 01:14:58;;;;;;;45.55;19.40;;;3.90;99.90;;;2.33;100.00;101903.81;4821816;29;20053;-75
2022/11/27 01:17:23;;;;;;;39.22;17.90;;;4.00;99.90;;;2.46;100.00;101906.31;4823502;29;20045;-75
2022/11/27 01:19:49;;;;;;;31.95;16.73;;;4.10;99.90;;;2.54;100.00;101907.34;4820609;29;20030;-74
2022/11/27 01:22:15;;;;;;;32.90;16.58;;;4.10;99.90;;;2.54;100.00;101896.56;4827390;29;20504;-75
2022/11/27 01:24:42;;;;;;;33.05;15.93;;;4.20;99.90;;;2.64;100.00;101899.28;4834099;29;20179;-75
2022/11/27 01:27:07;;;;;;;32.88;16.40;;;4.30;99.90;;;2.52;100.00;101901.25;4835001;29;20125;-75
2022/11/27 01:29:33;;;;;;;32.50;15.70;;;4.20;99.90;;;2.36;100.00;101898.16;4820163;29;20060;-74
2022/11/27 01:31:59;;;;;;;30.45;15.07;;;4.10;99.90;;;2.52;100.00;101897.69;4820526;29;20386;-75
2022/11/27 01:34:25;;;;;;;30.27;15.27;;;4.10;99.90;;;2.50;100.00;101899.66;4820705;29;20042;-75
2022/11/27 01:36:50;;;;;;;30.90;15.20;;;4.20;99.90;;;2.41;100.00;101901.31;4819697;29;20042;-76
2022/11/27 01:39:19;;;;;;;31.55;15.65;;;4.10;99.90;;;2.37;100.00;101897.16;4820390;29;20504;-75
2022/11/27 01:41:47;;;;;;;29.73;15.80;;;4.00;99.90;;;2.11;100.00;101895.72;4820400;29;20026;-75
2022/11/27 01:44:26;;;;;;;31.55;15.02;;;3.90;99.90;;;2.22;100.00;101897.50;4820152;29;20034;-77
2022/11/27 01:46:56;;;;;;;24.55;13.05;;;3.90;99.90;;;2.40;100.00;101894.22;4826667;29;20046;-75
2022/11/27 01:49:35;;;;;;;31.70;15.13;;;4.00;99.90;;;2.34;100.00;101900.13;4820485;29;20044;-76
2022/11/27 01:52:09;;;;;;;28.02;14.82;;;4.00;99.90;;;2.25;100.00;101896.38;4820665;29;20038;-76
2022/11/27 01:54:50;;;;;;;31.73;16.00;;;3.90;99.90;;;2.05;100.00;101884.63;4819973;29;20038;-76
2022/11/27 01:57:31;;;;;;;29.25;14.40;;;3.80;99.90;;;2.05;100.00;101890.00;4821267;29;20062;-75
2022/11/27 02:00:00;;;;;;;33.40;15.60;;;3.70;99.90;;;2.19;100.00;101886.16;4820059;29;20668;-76
2022/11/27 02:02:27;;;;;;;29.17;14.35;;;3.80;99.90;;;2.22;100.00;101883.19;4820153;29;20030;-76
2022/11/27 02:04:53;;;;;;;28.98;14.45;;;3.90;99.90;;;2.23;100.00;101879.50;4819691;29;20043;-76
2022/11/27 02:07:20;;;;;;;33.08;14.88;;;3.90;99.90;;;2.29;100.00;101887.06;4820048;29;20095;-76
2022/11/27 02:09:45;;;;;;;30.77;15.32;;;4.00;99.90;;;2.26;100.00;101887.31;4819520;29;20456;-76
2022/11/27 02:12:39;;;;;;;27.85;13.23;;;3.90;99.90;;;2.30;100.00;101886.06;4819839;29;20034;-76
2022/11/27 02:15:20;;;;;;;27.80;13.15;;;3.90;99.90;;;2.26;100.00;101888.19;4820011;29;20043;-76
2022/11/27 02:18:05;;;;;;;25.63;12.90;;;3.90;99.90;;;2.24;100.00;101884.75;4824669;29;20090;-76
2022/11/27 02:20:44;;;;;;;32.75;14.25;;;3.90;99.90;;;2.23;100.00;101888.41;4819730;29;20026;-76
2022/11/27 02:23:31;;;;;;;25.73;13.07;;;3.90;99.90;;;2.26;100.00;101887.31;4824108;29;20086;-76
2022/11/27 02:26:08;;;;;;;27.38;12.95;;;3.90;99.90;;;2.21;100.00;101881.47;4819733;29;20085;-76
2022/11/27 02:29:04;;;;;;;26.35;12.68;;;3.90;99.90;;;2.20;100.00;101874.38;4821029;29;20095;-76
2022/11/27 02:31:58;;;;;;;24.85;11.68;;;3.90;99.90;;;2.20;100.00;101871.69;4824083;29;20113;-76
2022/11/27 02:34:36;;;;;;;27.95;12.82;;;3.90;99.90;;;2.23;100.00;101869.56;4819609;29;20034;-75
2022/11/27 02:37:25;;;;;;;25.08;13.20;;;3.90;99.90;;;2.16;100.00;101868.41;4819318;29;20357;-76
2022/11/27 02:40:09;;;;;;;;;;;3.90;99.90;;;2.19;100.00;101868.13;4820105;29;20355;-76
2022/11/27 02:43:06;;;;;;;27.02;12.70;;;3.80;99.90;;;2.15;100.00;101870.25;4819363;29;20716;-75
2022/11/27 02:45:42;;;;;;;24.70;12.82;;;3.80;99.90;;;2.16;100.00;101857.63;4819782;29;20093;-75
2022/11/27 02:48:12;;;;;;;27.02;12.40;;;3.80;99.90;;;2.15;100.00;101851.41;4819946;29;20038;-76
2022/11/27 02:50:42;;;;;;;28.63;12.85;;;3.90;99.90;;;2.06;100.00;101848.63;4818753;29;20046;-76
2022/11/27 02:53:16;;;;;;;25.98;12.90;;;3.80;99.90;;;1.99;100.00;101840.22;4819456;29;20562;-76
2022/11/27 02:55:44;;;;;;;24.58;13.82;;;3.70;99.90;;;2.05;100.00;101828.09;4819590;29;20039;-76
2022/11/27 02:58:15;;;;;;;;;;;3.70;99.90;;;2.03;100.00;101822.00;4820757;29;20030;-76
2022/11/27 03:00:46;;;;;;;28.08;12.48;;;3.70;99.90;;;1.98;100.00;101833.13;4819453;29;19978;-76
2022/11/27 03:03:18;;;;;;;25.20;13.05;;;3.70;99.90;;;1.89;100.00;101836.63;4819426;29;20039;-76
2022/11/27 03:05:49;;;;;;;29.27;13.23;;;3.60;99.90;;;1.75;100.00;101835.94;4819152;29;20030;-76
2022/11/27 03:08:55;;;;;;;25.65;12.73;;;3.50;99.90;;;1.62;100.00;101840.66;4819240;29;20118;-76
2022/11/27 03:11:21;;;;;;;29.10;13.82;;;3.40;99.90;;;1.47;100.00;101827.50;4819701;29;20042;-76
2022/11/27 03:13:53;;;;;;;26.60;13.65;;;3.20;99.90;;;1.31;100.00;101819.84;4819117;29;20117;-76
2022/11/27 03:16:43;;;;;;;32.50;14.80;;;3.10;99.90;;;1.21;100.00;101819.75;4819076;29;20087;-77
2022/11/27 03:19:22;;;;;;;32.58;14.27;;;2.90;99.90;;;1.13;100.00;101823.06;4819626;29;20042;-77
2022/11/27 03:22:00;;;;;;;32.47;13.77;;;2.90;99.90;;;1.15;100.00;101813.03;4818704;29;20054;-76
2022/11/27 03:24:28;;;;;;;30.27;14.05;;;2.80;99.90;;;1.22;100.00;101810.72;4819141;29;20031;-76
2022/11/27 03:26:57;;;;;;;33.15;14.00;;;2.90;99.90;;;1.24;100.00;101806.06;4819080;29;20490;-77
2022/11/27 03:29:34;;;;;;;31.05;14.73;;;2.90;99.90;;;1.24;100.00;101800.69;4819239;29;20030;-76
2022/11/27 03:32:00;;;;;;;30.85;15.57;;;2.90;99.90;;;1.18;100.00;101801.19;4818802;29;20042;-76
2022/11/27 03:34:27;;;;;;;33.08;14.45;;;2.90;99.90;;;1.13;100.00;101803.41;4831411;29;20038;-76
2022/11/27 03:36:54;;;;;;;31.10;14.23;;;2.80;99.90;;;0.97;100.00;101804.66;4817237;29;20058;-76
2022/11/27 03:39:21;;;;;;;30.58;14.68;;;2.70;99.90;;;0.79;100.00;101807.00;4819529;29;20402;-75
2022/11/27 03:42:25;;;;;;;26.27;13.80;;;2.60;99.90;;;0.63;100.00;101812.78;4819228;29;20048;-76
2022/11/27 03:45:33;;;;;;;30.65;13.45;;;2.40;99.90;;;0.49;100.00;101813.00;4831006;29;20054;-76
2022/11/27 03:48:26;;;;;;;31.35;13.20;;;2.30;99.90;;;0.51;100.00;101809.22;4818332;29;20046;-75
2022/11/27 03:51:19;;;;;;;32.85;15.13;;;2.20;99.90;;;0.55;100.00;101809.84;4818721;29;20050;-75
2022/11/27 03:53:52;;;;;;;35.03;14.85;;;2.30;99.90;;;0.49;100.00;101816.56;4818541;29;20198;-76
2022/11/27 03:57:11;;;;;;;33.33;14.55;;;2.20;99.90;;;0.31;100.00;101815.31;4818988;29;20180;-75
2022/11/27 03:59:41;;;;;;;25.98;12.68;;;2.10;99.90;;;0.07;100.00;101822.50;4818583;29;20058;-76
2022/11/27 04:02:13;;;;;;;28.90;13.90;;;1.80;99.90;;;-0.01;100.00;101822.22;4819475;29;20034;-76
2022/11/27 04:04:39;;;;;;;33.83;14.18;;;1.70;99.90;;;-0.08;100.00;101823.66;4822060;29;20498;-76
2022/11/27 04:07:05;;;;;;;31.20;13.35;;;1.70;99.90;;;-0.16;100.00;101826.94;4822219;29;20046;-76
2022/11/27 04:09:30;;;;;;;30.95;13.63;;;1.60;99.90;;;-0.16;100.00;101827.78;4821932;29;20086;-76
2022/11/27 04:11:56;;;;;;;29.38;13.50;;;1.60;99.90;;;-0.25;100.00;101820.47;4821571;29;20030;-76
2022/11/27 04:14:22;;;;;;;24.75;11.82;;;1.50;99.90;;;-0.39;100.00;101816.16;4821681;29;20046;-76
2022/11/27 04:16:47;;;;;;;28.58;13.32;;;1.40;99.90;;;-0.45;100.00;101817.47;4821960;29;20043;-76
2022/11/27 04:19:13;;;;;;;25.73;13.27;;;1.30;99.90;;;-0.49;100.00;101805.25;4821599;29;20030;-76
2022/11/27 04:21:39;;;;;;;25.17;12.40;;;1.30;99.90;;;-0.31;100.00;101802.13;4821673;29;20031;-76
2022/11/27 04:24:05;;;;;;;31.83;14.18;;;1.30;99.90;;;-0.11;100.00;101797.06;4821342;29;20037;-76
2022/11/27 04:26:30;;;;;;;30.45;13.32;;;1.50;99.90;;;0.21;100.00;101785.66;4821428;29;20497;-76
2022/11/27 04:28:56;;;;;;;31.38;13.80;;;1.70;99.90;;;0.33;100.00;101779.31;4821598;29;20504;-75
2022/11/27 04:31:22;;;;;;;28.73;13.13;;;2.00;99.90;;;0.32;100.00;101782.13;4821649;29;20039;-76
2022/11/27 04:33:47;;;;;;;31.75;14.60;;;2.00;99.90;;;0.22;100.00;101782.00;4821505;29;20038;-76
2022/11/27 04:36:13;;;;;;;31.15;13.70;;;2.00;99.90;;;0.22;100.00;101779.31;4821008;29;20050;-77
2022/11/27 04:38:39;;;;;;;31.95;13.93;;;1.90;99.90;;;0.22;100.00;101782.00;4821544;29;20034;-77
2022/11/27 04:41:05;;;;;;;30.08;14.45;;;1.90;99.90;;;0.24;100.00;101780.03;4821399;29;20041;-77
2022/11/27 04:43:30;;;;;;;35.95;13.98;;;1.90;99.90;;;0.17;100.00;101781.50;4821055;29;20038;-77
2022/11/27 04:45:56;;;;;;;30.80;12.73;;;1.90;99.90;;;0.20;100.00;101776.75;4821521;29;20046;-76
2022/11/27 04:48:31;;;;;;;33.25;13.77;;;1.90;99.90;;;0.21;100.00;101780.28;4821552;29;20037;-76
2022/11/27 04:50:58;;;;;;;29.67;13.95;;;1.90;99.90;;;0.09;100.00;101769.53;4821815;29;20141;-76
2022/11/27 04:53:24;;;;;;;29.90;14.05;;;1.80;99.90;;;0.17;100.00;101778.81;4822711;29;20450;-76
2022/11/27 04:55:51;;;;;;;30.55;13.10;;;1.80;99.90;;;0.24;100.00;101769.28;4833475;29;20425;-75
2022/11/27 04:58:17;;;;;;;32.60;14.23;;;1.90;99.90;;;0.32;100.00;101761.50;4822557;29;20506;-76
2022/11/27 05:00:43;;;;;;;32.15;13.77;;;2.00;99.90;;;0.51;100.00;101770.75;4821166;29;20042;-76
2022/11/27 05:03:09;;;;;;;33.40;13.82;;;2.20;99.90;;;0.49;100.00;101760.16;4820885;29;20022;-75
2022/11/27 05:05:34;;;;;;;34.58;13.88;;;2.20;99.90;;;0.38;100.00;101752.09;4820581;29;20529;-76
2022/11/27 05:08:00;;;;;;;31.55;13.90;;;2.10;99.90;;;0.30;100.00;101742.00;4820699;29;20031;-76
2022/11/27 05:10:26;;;;;;;30.77;13.07;;;2.00;99.90;;;0.18;100.00;101742.94;4820961;29;20072;-76
2022/11/27 05:12:52;;;;;;;27.52;12.07;;;2.00;99.90;;;0.07;100.00;101741.97;4820389;29;20034;-76
2022/11/27 05:15:17;;;;;;;25.65;11.63;;;1.80;99.90;;;0.09;100.00;101748.09;4820393;29;20041;-76
2022/11/27 05:17:43;;;;;;;27.60;11.05;;;1.80;99.90;;;0.12;100.00;101741.59;4820755;29;20082;-76
2022/11/27 05:20:09;;;;;;;24.42;11.00;;;1.90;99.90;;;0.22;100.00;101733.66;4820735;29;20034;-76
2022/11/27 05:22:35;;;;;;;29.65;12.27;;;2.00;99.90;;;0.24;100.00;101737.97;4820604;29;20031;-76
2022/11/27 05:25:01;;;;;;;26.25;12.10;;;2.00;99.90;;;0.14;100.00;101745.03;4826302;29;20394;-76
2022/11/27 05:27:27;;;;;;;28.33;12.32;;;1.90;99.90;;;0.08;100.00;101737.44;4820802;29;20134;-76
2022/11/27 05:29:53;;;;;;;22.98;10.45;;;1.80;99.90;;;-0.02;100.00;101732.81;4820315;29;20129;-76
2022/11/27 05:32:18;;;;;;;27.20;10.93;;;1.70;99.90;;;-0.15;100.00;101716.84;4820713;29;20042;-76
2022/11/27 05:34:45;;;;;;;23.23;10.00;;;1.70;99.90;;;-0.13;100.00;101721.22;4820111;29;20061;-76
2022/11/27 05:37:11;;;;;;;25.08;10.68;;;1.60;99.90;;;-0.15;100.00;101707.91;4820132;29;20094;-76
2022/11/27 05:39:37;;;;;;;22.85;10.05;;;1.60;99.90;;;-0.14;100.00;101706.94;4820446;29;20127;-76
2022/11/27 05:42:03;;;;;;;25.35;11.23;;;1.60;99.90;;;-0.08;100.00;101706.47;4820150;29;20684;-76
2022/11/27 05:44:29;;;;;;;21.15;10.27;;;1.60;99.90;;;-0.09;100.00;101702.09;4820267;29;20037;-76
2022/11/27 05:46:55;;;;;;;21.77;10.20;;;1.60;99.90;;;-0.11;100.00;101701.34;4819770;29;20107;-77
2022/11/27 05:49:21;;;;;;;21.85;10.23;;;1.60;99.90;;;-0.14;100.00;101698.88;4818764;29;20027;-76
2022/11/27 05:51:47;;;;;;;20.60;10.18;;;1.60;99.90;;;-0.15;100.00;101699.88;4820289;29;20049;-76
2022/11/27 05:54:13;;;;;;;18.20;9.70;;;1.60;99.90;;;-0.14;100.00;101690.84;4820740;29;20038;-76
2022/11/27 05:56:39;;;;;;;21.83;10.23;;;1.60;99.90;;;-0.08;100.00;101692.19;4820845;29;20046;-77
2022/11/27 05:59:04;;;;;;;23.98;10.07;;;1.60;99.90;;;-0.14;100.00;101696.22;4820686;29;20027;-76
2022/11/27 06:01:30;;;;;;;24.50;9.85;;;1.60;99.90;;;-0.10;100.00;101686.97;4820286;29;20044;-77
2022/11/27 06:03:56;;;;;;;22.98;10.45;;;1.70;99.90;;;0.00;100.00;101689.78;4820168;29;20034;-76
2022/11/27 06:06:22;;;;;;;24.52;10.13;;;1.70;99.90;;;-0.13;100.00;101667.56;4820508;29;20451;-76
2022/11/27 06:08:47;;;;;;;18.40;9.05;;;1.70;99.90;;;0.01;100.00;101686.13;4819704;29;20120;-76
2022/11/27 06:11:20;;;;;;;24.00;10.52;;;1.70;99.90;;;0.04;100.00;101683.19;4820195;29;20501;-77
2022/11/27 06:13:47;;;;;;;22.50;9.95;;;1.70;99.90;;;0.06;100.00;101681.22;4819852;29;20121;-77
2022/11/27 06:16:22;;;;;;;21.52;10.45;;;1.80;99.90;;;0.07;100.00;101684.75;4819895;29;20079;-76
2022/11/27 06:18:54;;;;;;;24.63;10.27;;;1.80;99.90;;;0.01;100.00;101678.06;4820300;29;20447;-75
2022/11/27 06:21:22;;;;;;;20.38;9.35;;;1.70;99.90;;;-0.07;100.00;101676.00;4819772;29;20233;-75
2022/11/27 06:23:53;;;;;;;22.20;10.02;;;1.70;99.90;;;-0.08;100.00;101686.84;4819798;29;20062;-75
2022/11/27 06:26:24;;;;;;;24.88;9.73;;;1.60;99.90;;;-0.06;100.00;101687.56;4819477;29;20038;-75
2022/11/27 06:28:50;;;;;;;23.25;10.05;;;1.70;99.90;;;-0.14;100.00;101680.09;4819555;29;20126;-75
2022/11/27 06:31:21;;;;;;;21.55;9.57;;;1.60;99.90;;;-0.18;100.00;101686.69;4819994;29;20048;-75
2022/11/27 06:33:48;;;;;;;21.10;9.82;;;1.60;99.90;;;-0.24;100.00;101690.75;4819866;29;21039;-75
2022/11/27 06:36:18;;;;;;;22.42;10.05;;;1.50;99.90;;;0.06;100.00;101686.59;4819365;29;20050;-75
2022/11/27 06:38:45;;;;;;;23.02;10.85;;;1.70;99.90;;;0.29;100.00;101678.53;4817170;29;20222;-75
2022/11/27 06:41:18;;;;;;;20.20;9.85;;;1.90;99.90;;;0.39;100.00;101676.81;4819621;29;20475;-75
2022/11/27 06:43:45;;;;;;;23.42;10.13;;;2.00;99.90;;;0.49;100.00;101690.34;4819328;29;20038;-75
2022/11/27 06:46:15;;;;;;;22.25;10.45;;;2.10;99.90;;;0.48;100.00;101679.72;4819322;29;20054;-75
2022/11/27 06:48:42;;;;;;;28.75;10.18;;;2.20;99.90;;;0.40;100.00;101673.13;4820480;29;20046;-76
2022/11/27 06:51:13;;;;;;;25.08;11.15;;;2.10;99.90;;;0.33;100.00;101680.00;4830953;29;20444;-74
2022/11/27 06:53:40;;;;;;;25.25;10.85;;;2.00;99.90;;;0.35;100.00;101669.97;4827600;29;20481;-75
2022/11/27 06:56:09;;;;;;;22.63;10.77;;;2.00;99.90;;;0.30;100.00;101674.00;4818809;29;20444;-75
2022/11/27 06:58:36;;;;;;;24.13;10.15;;;2.00;99.90;;;0.28;100.00;101674.16;4817677;29;20043;-75
2022/11/27 07:01:07;;;;;;;24.70;10.25;;;2.00;99.90;;;0.24;100.00;101681.59;4817863;29;20409;-75
2022/11/27 07:03:33;;;;;;;23.25;10.20;;;2.00;99.90;;;0.32;100.00;101680.97;4818379;29;20474;-75
2022/11/27 07:06:04;;;;;;;24.02;10.30;;;2.00;99.90;;;0.19;100.00;101673.06;4818113;29;20049;-75
2022/11/27 07:08:31;;;;;;;19.92;9.40;;;2.00;99.90;;;0.08;100.00;101681.97;4818237;29;20447;-76
2022/11/27 07:11:02;;;;;;;22.85;10.35;;;1.90;99.90;;;0.12;100.00;101667.31;4818809;29;20057;-75
2022/11/27 07:13:31;;;;;;;23.83;10.40;;;1.90;99.90;;;0.27;100.00;101659.84;4817866;29;20034;-75
2022/11/27 07:16:04;;;;;;;27.92;11.05;;;2.00;99.90;;;0.42;100.00;101665.81;4818804;29;20121;-74
2022/11/27 07:18:34;;;;;;;26.58;10.70;;;2.10;99.90;;;0.51;100.00;101666.03;4820821;29;20038;-74
2022/11/27 07:21:00;;;;;;;24.38;10.50;;;2.10;99.90;;;0.50;100.00;101665.19;4827522;29;20034;-75
2022/11/27 07:23:25;;;;;;;18.77;9.90;;;2.20;99.90;;;0.42;100.00;101665.81;4824361;29;20035;-74
2022/11/27 07:25:51;;;;;;;28.17;11.45;;;2.20;99.90;;;0.34;100.00;101657.53;4823489;29;20039;-74
2022/11/27 07:28:17;;;;;;;25.05;11.38;;;2.10;99.90;;;0.28;100.00;101647.31;4824552;29;20041;-76
2022/11/27 07:30:43;;;;;;;23.83;10.95;;;2.10;99.90;;;0.45;100.00;101669.22;4819878;29;20172;-75
2022/11/27 07:33:09;;;;;;;21.50;10.57;;;2.20;99.90;;;0.56;100.00;101662.00;4818560;29;20070;-74
2022/11/27 07:35:34;;;;;;;25.23;10.23;;;2.20;99.90;;;0.71;100.00;101662.56;4818391;29;20039;-74
2022/11/27 07:38:00;;;;;;;23.70;11.25;;;2.40;99.90;;;0.79;100.00;101658.38;4821462;29;20366;-74
2022/11/27 07:40:26;;;;;;;23.15;10.57;;;2.50;99.90;;;0.90;100.00;101662.84;4822005;29;20082;-75
2022/11/27 07:42:51;;;;;;;25.65;11.23;;;2.60;99.90;;;1.00;100.00;101664.66;4825249;29;20034;-73
2022/11/27 07:45:17;;;;;;;25.27;12.05;;;2.60;99.90;;;1.15;100.00;101664.34;4821941;29;20038;-74
2022/11/27 07:47:43;;;;;;;22.35;10.95;;;2.80;99.90;;;1.17;100.00;101665.06;4832445;29;20087;-73
2022/11/27 07:50:10;;;;;;;20.17;10.35;;;2.90;99.90;;;1.12;100.00;101661.94;4821355;29;20482;-73
2022/11/27 07:52:37;;;;;;;21.48;10.85;;;2.80;99.90;;;1.20;100.00;101659.44;4821495;29;20038;-75
2022/11/27 07:55:03;;;;;;;22.65;10.90;;;2.90;99.90;;;1.27;100.00;101659.78;4822092;29;20521;-73
2022/11/27 07:57:29;;;;;;;23.83;11.55;;;3.00;99.90;;;1.34;100.00;101654.72;4821961;29;20051;-74
2022/11/27 07:59:55;;;;;;;22.73;10.82;;;3.00;99.90;;;1.43;100.00;101659.31;4821789;29;20038;-73
2022/11/27 08:02:21;;;;;;;17.40;10.05;;;3.10;99.90;;;1.54;100.00;101655.69;4821370;29;20053;-73
2022/11/27 08:04:46;;;;;;;23.15;11.55;;;3.20;99.90;;;1.60;100.00;101655.16;4822035;29;20030;-73
2022/11/27 08:07:12;;;;;;;20.60;9.85;;;3.30;99.90;;;1.67;100.00;101660.88;4824396;29;20037;-72
2022/11/27 08:09:39;;;;;;;20.83;9.65;;;3.40;99.90;;;1.67;100.00;101653.63;4823980;29;20022;-73
2022/11/27 08:12:06;;;;;;;17.25;8.82;;;3.40;99.90;;;1.74;100.00;101653.13;4822872;29;20070;-73
2022/11/27 08:14:32;;;;;;;16.05;8.68;;;3.40;99.90;;;1.77;100.00;101658.22;4835008;29;20183;-74
2022/11/27 08:16:58;;;;;;;18.08;9.18;;;3.50;99.90;;;1.89;100.00;101664.38;4825432;29;20121;-77
2022/11/27 08:19:24;;;;;;;19.23;9.00;;;3.60;99.90;;;1.93;100.00;101658.56;4821729;29;20109;-78
2022/11/27 08:21:50;;;;;;;19.33;10.05;;;3.60;99.90;;;2.04;100.00;101662.16;4823152;29;20038;-78
2022/11/27 08:24:16;;;;;;;19.40;8.80;;;3.70;99.90;;;2.19;100.00;101665.34;4820000;29;20509;-77
2022/11/27 08:26:42;;;;;;;20.20;8.77;;;3.90;99.90;;;2.40;100.00;101674.19;4821290;29;20062;-78
2022/11/27 08:29:11;;;;;;;18.02;8.77;;;4.00;99.90;;;2.63;100.00;101665.84;4821659;29;20116;-75
2022/11/27 08:31:37;;;;;;;17.48;9.25;;;4.30;99.90;;;2.88;100.00;101666.31;4822202;29;20041;-75
2022/11/27 08:34:04;;;;;;;15.48;8.02;;;4.50;99.90;;;3.00;100.00;101670.59;4820909;29;20030;-74
2022/11/27 08:36:30;;;;;;;17.17;8.30;;;4.70;99.90;;;3.11;100.00;101676.81;4821144;29;20054;-74
2022/11/27 08:38:56;;;;;;;16.50;7.25;;;4.80;99.90;;;3.34;100.00;101673.81;4821367;29;20494;-75
2022/11/27 08:41:22;;;;;;;13.90;7.43;;;5.00;99.90;;;3.53;100.00;101678.34;4820843;29;20033;-75
2022/11/27 08:43:48;;;;;;;13.95;6.97;;;5.20;99.90;;;3.68;100.00;101667.94;4821366;29;20034;-75
2022/11/27 08:46:13;;;;;;;13.68;7.07;;;5.30;99.90;;;3.82;100.00;101666.59;4821656;29;20027;-74
2022/11/27 08:48:40;;;;;;;16.15;8.00;;;5.50;99.90;;;3.84;100.00;101656.50;4834280;29;20158;-76
2022/11/27 08:51:14;;;;;;;11.88;7.32;;;5.60;99.90;;;3.92;100.00;101647.69;4820802;29;20077;-76
2022/11/27 08:53:40;;;;;;;14.75;7.40;;;5.70;99.90;;;3.86;100.00;101658.06;4820689;29;20094;-75
2022/11/27 08:56:14;;;;;;;13.55;6.78;;;5.70;99.90;;;3.88;100.00;101652.53;4821205;29;20126;-77
2022/11/27 08:58:40;;;;;;;12.57;6.70;;;5.70;99.90;;;3.98;100.00;101647.09;4821206;29;20109;-75
2022/11/27 09:01:15;;;;;;;13.27;6.78;;;5.70;99.90;;;3.98;100.00;101649.81;4821414;29;20183;-76
2022/11/27 09:03:41;;;;;;;12.98;7.10;;;5.80;99.90;;;3.97;100.00;101653.47;4836087;29;20029;-75
2022/11/27 09:06:11;;;;;;;12.52;6.53;;;5.80;99.90;;;3.96;100.00;101643.69;4842712;29;20332;-76
2022/11/27 09:08:39;;;;;;;12.93;6.38;;;5.70;99.90;;;3.93;100.00;101639.44;4841264;29;20130;-76
2022/11/27 09:11:07;;;;;;;13.43;6.25;;;5.70;99.90;;;3.89;100.00;101633.47;4840451;29;20034;-75
2022/11/27 09:13:35;;;;;;;13.07;6.78;;;5.70;99.90;;;3.99;100.00;101628.03;4821514;29;20189;-75
2022/11/27 09:16:10;;;;;;;13.32;7.18;;;5.80;99.90;;;4.09;100.00;101622.59;4826206;29;20048;-76
2022/11/27 09:18:36;;;;;;;12.35;6.32;;;5.80;99.90;;;4.21;100.00;101625.94;4820848;29;20386;-77
2022/11/27 09:21:09;;;;;;;12.60;6.72;;;6.00;99.90;;;4.27;100.00;101617.22;4820462;29;20034;-76
2022/11/27 09:23:36;;;;;;;11.52;7.00;;;6.10;99.90;;;4.39;100.00;101615.16;4821379;29;20038;-75
2022/11/27 09:26:06;;;;;;;17.45;7.28;;;6.20;99.90;;;4.50;100.00;101607.81;4828014;29;20038;-76
2022/11/27 09:28:33;;;;;;;14.23;7.40;;;6.40;99.90;;;4.69;100.00;101596.88;4824290;29;20045;-76
2022/11/27 09:31:02;;;;;;;13.95;6.53;;;6.70;99.90;;;4.96;100.00;101605.91;4821224;29;20034;-76
2022/11/27 09:33:32;;;;;;;13.60;7.10;;;7.00;99.90;;;5.43;100.00;101601.19;4820793;29;20034;-78
2022/11/27 09:36:13;;;;;;;11.77;6.55;;;7.50;99.90;;;5.94;100.00;101600.44;4821830;29;20073;-77
2022/11/27 09:38:39;;;;;;;13.45;6.95;;;8.50;99.90;;;6.04;100.00;101595.75;4821343;29;20046;-76
2022/11/27 09:44:03;;;;;;;12.52;6.72;;;8.30;99.90;;;5.57;100.00;101592.47;5303089;24;19931;-75
2022/11/27 09:46:37;;;;;;;12.75;6.35;;;7.70;99.90;;;5.30;100.00;101598.91;4890670;29;20033;-77
2022/11/27 09:49:11;;;;;;;15.40;6.63;;;7.40;99.90;;;5.29;100.00;101598.03;4894554;29;20111;-77
2022/11/27 09:51:50;;;;;;;12.45;7.25;;;7.20;99.90;;;5.38;100.00;101598.09;4892913;29;20044;-77
2022/11/27 09:54:27;;;;;;;13.48;6.38;;;7.20;99.90;;;6.13;100.00;101588.50;4892763;29;20039;-76
2022/11/27 09:56:55;;;;;;;12.57;6.45;;;7.50;99.90;;;7.26;90.82;101580.81;4890693;29;20040;-77
2022/11/27 09:59:31;;;;;;;13.32;6.10;;;8.40;99.90;;;8.57;81.37;101570.44;4892154;29;20028;-77
2022/11/27 10:01:56;;;;;;;9.18;4.88;;;9.70;99.90;;;9.88;69.09;101582.13;4893030;29;20064;-77
2022/11/27 10:04:24;;;;;;;9.48;4.95;;;11.00;99.90;;;10.23;65.27;101574.19;4893983;29;20059;-77
2022/11/27 10:07:13;;;;;;;11.65;5.25;;;11.50;99.90;;;9.95;65.19;101574.03;4890249;29;20044;-77
2022/11/27 10:09:54;;;;;;;9.20;5.38;;;11.90;99.90;;;9.16;70.12;101585.28;4886417;29;20047;-76
2022/11/27 10:12:51;;;;;;;13.50;5.50;;;11.50;99.90;;;8.87;73.14;101575.16;4899870;29;20042;-77
2022/11/27 10:15:25;;;;;;;9.63;4.90;;;10.70;99.90;;;8.46;75.83;101579.00;4891444;29;20064;-76
2022/11/27 10:18:10;;;;;;;11.07;5.40;;;10.40;99.90;;;8.53;77.83;101568.28;4888351;29;20032;-75
2022/11/27 10:20:55;;;;;;;8.30;4.93;;;10.20;99.90;;;7.95;80.86;101565.81;4888675;29;20025;-75
2022/11/27 10:24:06;;;;;;;10.88;5.72;;;9.90;99.90;;;7.17;84.83;101552.84;4888283;29;20036;-75